NCAR-RAP Real-Time Weather Data

Output produced by METARs form (08 May 2021  16:12 UTC)
found at http://weather.rap.ucar.edu/surface/
 
KDRO 081553Z AUTO 25011G17KT 10SM CLR 17/M07 A2998 RMK AO2 SLP073 T01671067
KDRO 081453Z AUTO 00000KT 10SM CLR 13/M09 A2999 RMK AO2 SLP084 T01281089 50005
KDRO 081353Z AUTO 00000KT 10SM CLR 07/M08 A3000 RMK AO2 SLP094 T00671083
KDRO 081253Z AUTO 04003KT 10SM CLR 03/M11 A2999 RMK AO2 SLP094 T00331106
KDRO 081153Z AUTO 04008KT 10SM CLR 03/M12 A2998 RMK AO2 SLP092 T00281117 10128 20017 53002
KDRO 081053Z AUTO 00000KT 10SM CLR 05/M12 A2997 RMK AO2 SLP079 T00501117
KDRO 080953Z AUTO 00000KT 10SM CLR 04/M12 A2996 RMK AO2 SLP079 T00391122
KDRO 080853Z AUTO 02004KT 10SM CLR 07/M13 A2997 RMK AO2 SLP079 T00671128 58001
KDRO 080753Z AUTO 27005KT 10SM CLR 11/M13 A2997 RMK AO2 SLP070 T01061133
KDRO 080653Z AUTO 26005KT 10SM CLR 12/M14 A2998 RMK AO2 SLP069 T01221139 402670033
KDRO 080553Z AUTO 25007KT 10SM CLR 12/M13 A2997 RMK AO2 SLP072 T01171128 10244 20117 50007
KDRO 080453Z AUTO 28003KT 10SM CLR 13/M11 A2998 RMK AO2 SLP074 T01331111
KDRO 080353Z AUTO 24005KT 10SM CLR 18/M13 A2997 RMK AO2 SLP065 T01781128
KDRO 080253Z AUTO 23004KT 10SM CLR 19/M12 A2995 RMK AO2 SLP058 T01941117 55005